ADDS METAR Data INFO
IDs: Format: Raw Decoded Include TAF

Data at: 1601 UTC 12 Dec 2017

KGWR 121555Z AUTO 22013KT 10SM M03/M04 A3004 RMK A01
KGWR 121535Z AUTO 23013KT 10SM M04/M05 A3005 RMK A01
KGWR 121515Z AUTO 22013KT 10SM M04/M05 A3006 RMK A01
KGWR 121455Z AUTO 23014KT 10SM M05/M06 A3007 RMK A01
KGWR 121435Z AUTO 23014KT 10SM M05/M06 A3008 RMK A01
KGWR 121415Z AUTO 23013KT 10SM M05/M06 A3008 RMK A01
KGWR 121355Z AUTO 23013KT 10SM M05/M06 A3009 RMK A01
KGWR 121335Z AUTO 23010KT 10SM M06/M06 A3009 RMK A01
KGWR 121315Z AUTO 23011KT 10SM M06/M07 A3011 RMK A01
KGWR 121255Z AUTO 23010KT 10SM M06/M07 A3013 RMK A01
KGWR 121235Z AUTO 24012KT 10SM M06/M07 A3014 RMK A01
KGWR 121215Z AUTO 24011KT 10SM M07/M08 A3015 RMK A01
KGWR 121155Z AUTO 24011KT 10SM M07/M08 A3016 RMK A01
KGWR 121135Z AUTO 23012KT 10SM M06/M07 A3017 RMK A01
KGWR 121115Z AUTO 23010KT 10SM M06/M07 A3018 RMK A01
KGWR 121055Z AUTO 22009KT 10SM M06/M08 A3019 RMK A01
KGWR 121035Z AUTO 22008KT 10SM M07/M08 A3020 RMK A01
KGWR 121015Z AUTO 22009KT 10SM M07/M09 A3021 RMK A01
KGWR 120955Z AUTO 23009KT 10SM M07/M09 A3022 RMK A01
KGWR 120935Z AUTO 22008KT 10SM M08/M09 A3023 RMK A01
KGWR 120915Z AUTO 23008KT 10SM M08/M10 A3024 RMK A01
KGWR 120855Z AUTO 24009KT 10SM M09/M10 A3024 RMK A01
KGWR 120835Z AUTO 24007KT 10SM M09/M10 A3026 RMK A01
KGWR 120815Z AUTO 24008KT 10SM M09/M11 A3027 RMK A01
KGWR 120755Z AUTO 24007KT 10SM M10/M11 A3028 RMK A01
KGWR 120735Z AUTO 24009KT 10SM M10/M12 A3029 RMK A01
KGWR 120715Z AUTO 23008KT 10SM M11/M12 A3030 RMK A01
KGWR 120655Z AUTO 23006KT 10SM M12/M13 A3031 RMK A01
KGWR 120635Z AUTO 23008KT 10SM M12/M13 A3031 RMK A01
KGWR 120615Z AUTO 10SM M13/M14 A3031 RMK A01
KGWR 120555Z AUTO 26005KT 10SM M13/M15 A3032 RMK A01
KGWR 120535Z AUTO 26006KT 10SM M13/M15 A3032 RMK A01
KGWR 120515Z AUTO 00000KT 10SM M13/M15 A3033 RMK A01
KGWR 120455Z AUTO 00000KT 10SM M13/M15 A3033 RMK A01
KGWR 120435Z AUTO 00000KT 10SM M11/M12 A3033 RMK A01
KGWR 120415Z AUTO 00000KT 10SM M11/M13 A3034 RMK A01
KGWR 120355Z AUTO 00000KT 10SM M10/M12 A3034 RMK A01
KGWR 120335Z AUTO 33004KT 10SM M10/M12 A3034 RMK A01
KGWR 120315Z AUTO 32005KT 10SM M10/M12 A3034 RMK A01
KGWR 120255Z AUTO 33005KT 10SM M10/M12 A3034 RMK A01
KGWR 120235Z AUTO 31005KT 10SM M10/M12 A3034 RMK A01
KGWR 120215Z AUTO 33005KT 10SM M11/M12 A3034 RMK A01
KGWR 120155Z AUTO 32007KT 10SM M10/M12 A3034 RMK A01
KGWR 120135Z AUTO 34006KT 10SM M10/M11 A3034 RMK A01
KGWR 120115Z AUTO 32006KT 10SM M09/M11 A3033 RMK A01
KGWR 120055Z AUTO 31006KT 10SM M09/M11 A3033 RMK A01
KGWR 120035Z AUTO 32006KT 10SM M08/M11 A3033 RMK A01
KGWR 120015Z AUTO 34008KT 10SM M08/M10 A3033 RMK A01
KGWR 112355Z AUTO 32008KT 10SM M08/M11 A3032 RMK A01
KGWR 112335Z AUTO 33007KT 10SM M07/M11 A3031 RMK A01
KGWR 112315Z AUTO 33011KT 10SM M07/M10 A3030 RMK A01
KGWR 112255Z AUTO 33008G14KT 10SM M07/M10 A3029 RMK A01
KGWR 112235Z AUTO 34016KT 10SM M05/M10 A3029 RMK A01
KGWR 112215Z AUTO 33014G22KT 10SM M05/M10 A3028 RMK A01
KGWR 112155Z AUTO 35015G21KT 10SM M05/M10 A3027 RMK A01
KGWR 112135Z AUTO 35016G21KT 10SM M05/M10 A3024 RMK A01
KGWR 112115Z AUTO 34020KT 10SM M04/M10 A3024 RMK A01
KGWR 112055Z AUTO 35018KT 10SM M04/M10 A3023 RMK A01
KGWR 112035Z AUTO 35019G25KT 10SM M04/M09 A3022 RMK A01
KGWR 112015Z AUTO 35019G26KT 10SM M04/M09 A3021 RMK A01
KGWR 111955Z AUTO 35024G29KT 10SM M05/M09 A3021 RMK A01
KGWR 111935Z AUTO 34021G29KT 10SM M04/M08 A3020 RMK A01
KGWR 111915Z AUTO 35020G28KT 10SM M04/M08 A3018 RMK A01
KGWR 111855Z AUTO 35016G26KT 10SM M03/M07 A3017 RMK A01
KGWR 111835Z AUTO 34021G29KT 10SM M03/M06 A3016 RMK A01
KGWR 111815Z AUTO 01021G26KT 10SM M02/M06 A3014 RMK A01
KGWR 111755Z AUTO 36020G29KT 10SM M02/M05 A3013 RMK A01
KGWR 111735Z AUTO 36018G26KT 10SM M02/M05 A3011 RMK A01
KGWR 111715Z AUTO 01021G29KT 10SM M02/M05 A3010 RMK A01
KGWR 111655Z AUTO 36023G29KT 10SM M01/M04 A3009 RMK A01
KGWR 111635Z AUTO 36024G30KT 10SM M01/M03 A3007 RMK A01
KGWR 111615Z AUTO 36027G34KT 10SM M01/M03 A3005 RMK A01
KGWR 111555Z AUTO 35023G30KT 10SM 00/M02 A3003 RMK A01
KGWR 111535Z AUTO 36022G31KT 10SM 00/M02 A3001 RMK A01
KGWR 111515Z AUTO 36026KT 10SM 01/M01 A2999 RMK A01
KGWR 111455Z AUTO 35021G35KT 10SM 01/M01 A2997 RMK A01
KGWR 111435Z AUTO 35028G34KT 10SM 02/M01 A2993 RMK A01
KGWR 111415Z AUTO 34022G31KT 10SM 02/M01 A2992 RMK A01
KGWR 111355Z AUTO 34026KT 10SM 03/00 A2990 RMK A01
KGWR 111335Z AUTO 34021KT 10SM 03/01 A2988 RMK A01
KGWR 111315Z AUTO 34020G27KT 10SM 03/01 A2986 RMK A01
KGWR 111255Z AUTO 33020G25KT 10SM 03/01 A2984 RMK A01
KGWR 111235Z AUTO 33018G26KT 9SM 03/01 A2983 RMK A01
KGWR 111215Z AUTO 33018G26KT 10SM 03/02 A2981 RMK A01
KGWR 111155Z AUTO 33020G27KT 10SM 03/02 A2980 RMK A01
KGWR 111135Z AUTO 32021G26KT 10SM 03/02 A2978 RMK A01
KGWR 111115Z AUTO 31020KT 10SM 03/02 A2977 RMK A01
KGWR 111055Z AUTO 31018G25KT 10SM 03/01 A2976 RMK A01
KGWR 111035Z AUTO 30019G25KT 10SM 03/01 A2975 RMK A01
KGWR 111015Z AUTO 30019G27KT 10SM 03/01 A2974 RMK A01
KGWR 110955Z AUTO 30017KT 10SM 03/01 A2974 RMK A01
KGWR 110935Z AUTO 31017G26KT 9SM 03/01 A2975 RMK A01
KGWR 110915Z AUTO 30027G35KT 10SM 04/M01 A2974 RMK A01
KGWR 110855Z AUTO 28014KT 10SM 03/M02 A2974 RMK A01
KGWR 110835Z AUTO 27012KT 10SM 03/M02 A2973 RMK A01
KGWR 110815Z AUTO 26010KT 10SM 03/M01 A2973 RMK A01
KGWR 110755Z AUTO 25009KT 10SM 02/M01 A2974 RMK A01
KGWR 110735Z AUTO 25011KT 10SM 03/M01 A2974 RMK A01
KGWR 110715Z AUTO 25012KT 10SM 03/M01 A2976 RMK A01
KGWR 110655Z AUTO 26013KT 10SM 03/M01 A2978 RMK A01
KGWR 110635Z AUTO 25012KT 10SM 03/M01 A2978 RMK A01
KGWR 110615Z AUTO 24010KT 10SM 03/M01 A2979 RMK A01
KGWR 110555Z AUTO 24012KT 10SM 02/M00 A2980 RMK A01
KGWR 110535Z AUTO 25014KT 10SM 02/M00 A2981 RMK A01
KGWR 110515Z AUTO 24013KT 10SM 02/M00 A2982 RMK A01
KGWR 110455Z AUTO 25011KT 10SM 02/M00 A2983 RMK A01
KGWR 110435Z AUTO 24008KT 10SM 02/M00 A2984 RMK A01
KGWR 110415Z AUTO 24007KT 10SM 02/M00 A2986 RMK A01